Terminal Aerodrome Forecast
Issued by NWS

Home | Current Version | Previous Version | Text Only | Print | Product List | Glossary On
Versions: 1 2 3 4 5 6 7 8 9 10 11 12 13 14 15 16
751
FTUS43 KILX 231148
TAFBMI
TAF
KBMI 231148Z 2312/2412 13010KT P6SM OVC090
     FM231500 15013G21KT P6SM VCSH OVC040
     FM232200 15015G24KT P6SM OVC050
     FM240100 16014G23KT P6SM BKN120
     FM240300 17013G22KT P6SM SCT250 WS015/20055KT=

USA.gov is the U.S. government's official web portal to all federal, state and local government web resources and services.